sensor_id;sensor_type;location;lat;lon;timestamp;pressure;altitude;pressure_sealevel;temperature;humidity
20628;BME280;10473;42.734;24.258;2023-04-02T00:00:03;90890.72;;;6.98;74.31
20628;BME280;10473;42.734;24.258;2023-04-02T00:02:47;90890.72;;;6.98;74.66
20628;BME280;10473;42.734;24.258;2023-04-02T00:05:39;90896.72;;;6.95;74.76
20628;BME280;10473;42.734;24.258;2023-04-02T00:08:20;90893.66;;;6.89;75.30
20628;BME280;10473;42.734;24.258;2023-04-02T00:10:49;90888.78;;;6.88;74.76
20628;BME280;10473;42.734;24.258;2023-04-02T00:13:22;90899.72;;;6.93;75.32
20628;BME280;10473;42.734;24.258;2023-04-02T00:15:54;90901.19;;;6.91;75.00
20628;BME280;10473;42.734;24.258;2023-04-02T00:18:25;90901.97;;;6.91;74.58
20628;BME280;10473;42.734;24.258;2023-04-02T00:20:59;90903.09;;;6.90;74.12
20628;BME280;10473;42.734;24.258;2023-04-02T00:23:29;90908.72;;;6.89;75.21
20628;BME280;10473;42.734;24.258;2023-04-02T00:25:57;90903.84;;;6.91;74.69
20628;BME280;10473;42.734;24.258;2023-04-02T00:28:25;90910.94;;;6.87;73.83
20628;BME280;10473;42.734;24.258;2023-04-02T00:30:55;90922.25;;;6.91;74.34
20628;BME280;10473;42.734;24.258;2023-04-02T00:33:29;90920.38;;;6.88;74.92
20628;BME280;10473;42.734;24.258;2023-04-02T00:35:58;90917.75;;;6.88;74.48
20628;BME280;10473;42.734;24.258;2023-04-02T00:38:29;90916.28;;;6.94;75.31
20628;BME280;10473;42.734;24.258;2023-04-02T00:41:01;90918.16;;;6.97;74.17
20628;BME280;10473;42.734;24.258;2023-04-02T00:43:31;90906.47;;;6.91;74.25
20628;BME280;10473;42.734;24.258;2023-04-02T00:46:02;90911.41;;;6.99;74.54
20628;BME280;10473;42.734;24.258;2023-04-02T00:48:40;90898.25;;;6.99;73.31
20628;BME280;10473;42.734;24.258;2023-04-02T00:51:15;90899.06;;;7.07;73.99
20628;BME280;10473;42.734;24.258;2023-04-02T00:53:45;90895.69;;;7.10;73.87
20628;BME280;10473;42.734;24.258;2023-04-02T00:56:17;90888.91;;;7.09;72.92
20628;BME280;10473;42.734;24.258;2023-04-02T00:58:50;90875.31;;;7.03;73.02
20628;BME280;10473;42.734;24.258;2023-04-02T01:01:23;90885.56;;;7.12;72.52
20628;BME280;10473;42.734;24.258;2023-04-02T01:03:55;90891.56;;;7.12;72.51
20628;BME280;10473;42.734;24.258;2023-04-02T01:06:28;90885.56;;;7.12;73.45
20628;BME280;10473;42.734;24.258;2023-04-02T01:09:09;90871.19;;;7.06;73.73
20628;BME280;10473;42.734;24.258;2023-04-02T01:11:54;90887.78;;;7.10;73.09
20628;BME280;10473;42.734;24.258;2023-04-02T01:14:36;90888.53;;;7.07;72.80
20628;BME280;10473;42.734;24.258;2023-04-02T01:17:20;90890.03;;;7.08;72.38
20628;BME280;10473;42.734;24.258;2023-04-02T01:20:28;90893.72;;;6.96;72.74
20628;BME280;10473;42.734;24.258;2023-04-02T01:23:06;90904.94;;;6.86;74.17
20628;BME280;10473;42.734;24.258;2023-04-02T01:25:40;90908.72;;;6.89;73.18
20628;BME280;10473;42.734;24.258;2023-04-02T01:28:14;90902.69;;;6.92;73.77
20628;BME280;10473;42.734;24.258;2023-04-02T01:30:51;90909.06;;;6.87;73.21
20628;BME280;10473;42.734;24.258;2023-04-02T01:33:21;90898.63;;;6.98;72.27
20628;BME280;10473;42.734;24.258;2023-04-02T01:35:59;90901.19;;;6.91;72.54
20628;BME280;10473;42.734;24.258;2023-04-02T01:38:35;90893.31;;;6.91;73.92
20628;BME280;10473;42.734;24.258;2023-04-02T01:41:08;90886.88;;;6.88;73.86
20628;BME280;10473;42.734;24.258;2023-04-02T01:43:43;90877.91;;;6.93;72.55
20628;BME280;10473;42.734;24.258;2023-04-02T01:46:25;90873.34;;;6.83;72.08
20628;BME280;10473;42.734;24.258;2023-04-02T01:48:53;90861.59;;;6.70;72.48
20628;BME280;10473;42.734;24.258;2023-04-02T01:51:28;90866.38;;;6.57;73.11
20628;BME280;10473;42.734;24.258;2023-04-02T01:54:00;90855.03;;;6.46;73.67
20628;BME280;10473;42.734;24.258;2023-04-02T01:56:29;90870.88;;;6.57;72.62
20628;BME280;10473;42.734;24.258;2023-04-02T01:58:58;90864.19;;;6.63;72.57
20628;BME280;10473;42.734;24.258;2023-04-02T02:01:34;90880.72;;;6.63;73.83
20628;BME280;10473;42.734;24.258;2023-04-02T02:04:27;90884.44;;;6.55;73.84
20628;BME280;10473;42.734;24.258;2023-04-02T02:06:56;90882.53;;;6.56;73.73
20628;BME280;10473;42.734;24.258;2023-04-02T02:09:28;90876.16;;;6.57;73.25
20628;BME280;10473;42.734;24.258;2023-04-02T02:11:59;90879.09;;;6.48;74.39
20628;BME280;10473;42.734;24.258;2023-04-02T02:14:29;90887.31;;;6.43;74.02
20628;BME280;10473;42.734;24.258;2023-04-02T02:17:00;90870.88;;;6.57;73.92
20628;BME280;10473;42.734;24.258;2023-04-02T02:19:33;90881.00;;;6.51;74.42
20628;BME280;10473;42.734;24.258;2023-04-02T02:22:09;90873.94;;;6.62;73.91
20628;BME280;10473;42.734;24.258;2023-04-02T02:24:39;90876.00;;;6.36;74.70
20628;BME280;10473;42.734;24.258;2023-04-02T02:27:33;90879.63;;;6.21;75.52
20628;BME280;10473;42.734;24.258;2023-04-02T02:30:14;90877.38;;;6.23;75.01
20628;BME280;10473;42.734;24.258;2023-04-02T02:32:51;90888.69;;;6.27;75.02
20628;BME280;10473;42.734;24.258;2023-04-02T02:35:22;90878.75;;;6.06;75.06
20628;BME280;10473;42.734;24.258;2023-04-02T02:37:56;90881.94;;;6.29;75.38
20628;BME280;10473;42.734;24.258;2023-04-02T02:40:28;90880.34;;;6.18;76.21
20628;BME280;10473;42.734;24.258;2023-04-02T02:43:00;90875.03;;;6.14;75.66
20628;BME280;10473;42.734;24.258;2023-04-02T02:45:34;90867.59;;;6.20;75.13
20628;BME280;10473;42.734;24.258;2023-04-02T02:48:10;90870.97;;;6.20;74.93
20628;BME280;10473;42.734;24.258;2023-04-02T02:50:40;90879.97;;;6.19;75.34
20628;BME280;10473;42.734;24.258;2023-04-02T02:53:15;90877.97;;;6.06;76.44
20628;BME280;10473;42.734;24.258;2023-04-02T02:55:44;90880.13;;;5.93;75.76
20628;BME280;10473;42.734;24.258;2023-04-02T02:58:19;90898.13;;;5.91;76.49
20628;BME280;10473;42.734;24.258;2023-04-02T03:01:10;90903.00;;;5.93;75.89
20628;BME280;10473;42.734;24.258;2023-04-02T03:03:43;90907.06;;;5.83;76.03
20628;BME280;10473;42.734;24.258;2023-04-02T03:06:14;90914.56;;;5.81;76.79
20628;BME280;10473;42.734;24.258;2023-04-02T03:08:56;90916.13;;;5.89;77.42
20628;BME280;10473;42.734;24.258;2023-04-02T03:11:35;90921.47;;;5.96;76.70
20628;BME280;10473;42.734;24.258;2023-04-02T03:14:19;90927.09;;;5.98;77.03
20628;BME280;10473;42.734;24.258;2023-04-02T03:16:52;90925.31;;;6.06;76.48
20628;BME280;10473;42.734;24.258;2023-04-02T03:19:28;90924.28;;;5.81;76.80
20628;BME280;10473;42.734;24.258;2023-04-02T03:22:02;90920.03;;;6.06;77.28
20628;BME280;10473;42.734;24.258;2023-04-02T03:24:40;90923.72;;;5.98;77.25
20628;BME280;10473;42.734;24.258;2023-04-02T03:27:15;90931.34;;;6.10;76.88
20628;BME280;10473;42.734;24.258;2023-04-02T03:29:51;90928.47;;;6.25;76.75
20628;BME280;10473;42.734;24.258;2023-04-02T03:32:23;90926.75;;;6.00;75.97
20628;BME280;10473;42.734;24.258;2023-04-02T03:34:57;90931.81;;;6.19;75.78
20628;BME280;10473;42.734;24.258;2023-04-02T03:37:30;90932.94;;;6.18;75.37
20628;BME280;10473;42.734;24.258;2023-04-02T03:40:01;90937.44;;;6.17;74.79
20628;BME280;10473;42.734;24.258;2023-04-02T03:42:39;90939.78;;;6.26;74.58
20628;BME280;10473;42.734;24.258;2023-04-02T03:45:12;90949.81;;;6.17;74.48
20628;BME280;10473;42.734;24.258;2023-04-02T03:47:44;90946.91;;;6.25;74.18
20628;BME280;10473;42.734;24.258;2023-04-02T03:50:17;90952.44;;;6.17;75.46
20628;BME280;10473;42.734;24.258;2023-04-02T03:52:50;90960.00;;;6.22;74.70
20628;BME280;10473;42.734;24.258;2023-04-02T03:55:20;90964.63;;;6.32;75.27
20628;BME280;10473;42.734;24.258;2023-04-02T03:57:54;90962.91;;;6.10;75.51
20628;BME280;10473;42.734;24.258;2023-04-02T04:00:32;90967.50;;;6.16;74.45
20628;BME280;10473;42.734;24.258;2023-04-02T04:03:09;90968.66;;;6.19;74.26
20628;BME280;10473;42.734;24.258;2023-04-02T04:05:45;90971.66;;;6.21;74.63
20628;BME280;10473;42.734;24.258;2023-04-02T04:08:18;90976.91;;;6.21;73.65
20628;BME280;10473;42.734;24.258;2023-04-02T04:10:50;90983.28;;;6.20;74.35
20628;BME280;10473;42.734;24.258;2023-04-02T04:13:21;90976.16;;;6.20;73.86
20628;BME280;10473;42.734;24.258;2023-04-02T04:15:55;90981.88;;;6.29;73.99
20628;BME280;10473;42.734;24.258;2023-04-02T04:18:28;90987.16;;;6.33;74.72
20628;BME280;10473;42.734;24.258;2023-04-02T04:21:15;90990.28;;;6.42;74.26
20628;BME280;10473;42.734;24.258;2023-04-02T04:24:01;90994.13;;;6.51;73.22
20628;BME280;10473;42.734;24.258;2023-04-02T04:26:37;90989.59;;;6.48;73.49
20628;BME280;10473;42.734;24.258;2023-04-02T04:29:18;90988.91;;;6.55;73.82
20628;BME280;10473;42.734;24.258;2023-04-02T04:31:54;90989.69;;;6.59;73.47
20628;BME280;10473;42.734;24.258;2023-04-02T04:34:39;90990.50;;;6.63;73.24
20628;BME280;10473;42.734;24.258;2023-04-02T04:37:17;90988.56;;;6.60;73.02
20628;BME280;10473;42.734;24.258;2023-04-02T04:39:55;90984.28;;;6.45;74.04
20628;BME280;10473;42.734;24.258;2023-04-02T04:42:26;90994.16;;;6.55;73.34
20628;BME280;10473;42.734;24.258;2023-04-02T04:45:00;90991.22;;;6.63;73.77
20628;BME280;10473;42.734;24.258;2023-04-02T04:47:34;90989.69;;;6.59;74.34
20628;BME280;10473;42.734;24.258;2023-04-02T04:50:07;90993.53;;;6.68;73.71
20628;BME280;10473;42.734;24.258;2023-04-02T04:52:41;90999.41;;;6.51;73.78
20628;BME280;10473;42.734;24.258;2023-04-02T04:55:25;90998.28;;;6.52;74.42
20628;BME280;10473;42.734;24.258;2023-04-02T04:57:58;90988.84;;;6.48;73.29
20628;BME280;10473;42.734;24.258;2023-04-02T05:00:35;91001.53;;;6.39;74.22
20628;BME280;10473;42.734;24.258;2023-04-02T05:03:12;90997.16;;;6.53;74.13
20628;BME280;10473;42.734;24.258;2023-04-02T05:05:45;90986.47;;;6.36;74.99
20628;BME280;10473;42.734;24.258;2023-04-02T05:08:20;90988.75;;;6.41;75.29
20628;BME280;10473;42.734;24.258;2023-04-02T05:10:51;90987.44;;;6.61;74.33
20628;BME280;10473;42.734;24.258;2023-04-02T05:13:27;90986.44;;;6.32;74.91
20628;BME280;10473;42.734;24.258;2023-04-02T05:16:03;90995.66;;;6.56;74.94
20628;BME280;10473;42.734;24.258;2023-04-02T05:18:39;90992.25;;;6.52;73.97
20628;BME280;10473;42.734;24.258;2023-04-02T05:21:16;90988.94;;;6.62;73.92
20628;BME280;10473;42.734;24.258;2023-04-02T05:23:51;90984.47;;;6.62;74.28
20628;BME280;10473;42.734;24.258;2023-04-02T05:26:24;90988.22;;;6.61;74.35
20628;BME280;10473;42.734;24.258;2023-04-02T05:28:56;90988.75;;;6.81;74.79
20628;BME280;10473;42.734;24.258;2023-04-02T05:31:30;90993.78;;;6.96;74.19
20628;BME280;10473;42.734;24.258;2023-04-02T05:34:03;90983.09;;;6.79;74.98
20628;BME280;10473;42.734;24.258;2023-04-02T05:36:31;90986.34;;;7.09;73.85
20628;BME280;10473;42.734;24.258;2023-04-02T05:39:07;90987.81;;;7.03;73.41
20628;BME280;10473;42.734;24.258;2023-04-02T05:41:56;90990.22;;;7.25;73.16
20628;BME280;10473;42.734;24.258;2023-04-02T05:44:38;90990.25;;;7.29;72.23
20628;BME280;10473;42.734;24.258;2023-04-02T05:47:19;90988.84;;;7.42;72.95
20628;BME280;10473;42.734;24.258;2023-04-02T05:49:55;90991.84;;;7.40;72.48
20628;BME280;10473;42.734;24.258;2023-04-02T05:52:30;90986.69;;;7.61;72.71
20628;BME280;10473;42.734;24.258;2023-04-02T05:55:18;90995.38;;;7.72;71.43
20628;BME280;10473;42.734;24.258;2023-04-02T05:57:53;91014.72;;;7.97;71.54
20628;BME280;10473;42.734;24.258;2023-04-02T06:00:38;91013.66;;;8.09;69.81
20628;BME280;10473;42.734;24.258;2023-04-02T06:03:18;91005.09;;;8.33;67.52
20628;BME280;10473;42.734;24.258;2023-04-02T06:05:52;91010.78;;;8.38;67.08
20628;BME280;10473;42.734;24.258;2023-04-02T06:08:26;91012.69;;;8.52;66.99
20628;BME280;10473;42.734;24.258;2023-04-02T06:11:03;91024.06;;;8.70;66.43
20628;BME280;10473;42.734;24.258;2023-04-02T06:13:35;91018.00;;;8.76;66.06
20628;BME280;10473;42.734;24.258;2023-04-02T06:16:03;91018.81;;;8.94;66.05
20628;BME280;10473;42.734;24.258;2023-04-02T06:18:34;91018.06;;;9.15;65.00
20628;BME280;10473;42.734;24.258;2023-04-02T06:21:04;91015.03;;;9.30;65.02
20628;BME280;10473;42.734;24.258;2023-04-02T06:23:36;91017.31;;;9.39;64.52
20628;BME280;10473;42.734;24.258;2023-04-02T06:26:13;91031.59;;;9.83;64.46
20628;BME280;10473;42.734;24.258;2023-04-02T06:28:46;91028.56;;;9.92;62.23
20628;BME280;10473;42.734;24.258;2023-04-02T06:31:22;91032.69;;;10.24;63.25
20628;BME280;10473;42.734;24.258;2023-04-02T06:33:53;91036.94;;;10.87;62.74
20628;BME280;10473;42.734;24.258;2023-04-02T06:36:24;91043.16;;;11.21;59.94
20628;BME280;10473;42.734;24.258;2023-04-02T06:39:00;91048.31;;;11.42;58.25
20628;BME280;10473;42.734;24.258;2023-04-02T06:41:32;91044.47;;;11.46;57.31
20628;BME280;10473;42.734;24.258;2023-04-02T06:44:24;91048.22;;;11.59;57.84
20628;BME280;10473;42.734;24.258;2023-04-02T06:47:25;91038.72;;;11.62;58.81
20628;BME280;10473;42.734;24.258;2023-04-02T06:50:01;91044.97;;;11.82;59.16
20628;BME280;10473;42.734;24.258;2023-04-02T06:52:34;91051.38;;;11.88;58.39
20628;BME280;10473;42.734;24.258;2023-04-02T06:55:28;91048.94;;;12.41;59.28
20628;BME280;10473;42.734;24.258;2023-04-02T06:57:59;91055.88;;;12.65;56.19
20628;BME280;10473;42.734;24.258;2023-04-02T07:00:32;91059.13;;;13.13;56.21
20628;BME280;10473;42.734;24.258;2023-04-02T07:03:05;91066.59;;;13.48;55.10
20628;BME280;10473;42.734;24.258;2023-04-02T07:05:34;91060.16;;;13.19;53.51
20628;BME280;10473;42.734;24.258;2023-04-02T07:08:02;91060.16;;;13.72;54.05
20628;BME280;10473;42.734;24.258;2023-04-02T07:10:30;91067.63;;;13.80;52.97
20628;BME280;10473;42.734;24.258;2023-04-02T07:12:58;91061.06;;;14.08;52.89
20628;BME280;10473;42.734;24.258;2023-04-02T07:15:29;91060.13;;;14.18;53.26
20628;BME280;10473;42.734;24.258;2023-04-02T07:17:57;91067.91;;;14.09;50.99
20628;BME280;10473;42.734;24.258;2023-04-02T07:20:27;91076.94;;;14.15;51.78
20628;BME280;10473;42.734;24.258;2023-04-02T07:22:58;91073.22;;;14.09;50.87
20628;BME280;10473;42.734;24.258;2023-04-02T07:25:26;91074.03;;;13.83;50.98
20628;BME280;10473;42.734;24.258;2023-04-02T07:27:54;91079.91;;;13.71;50.79
20628;BME280;10473;42.734;24.258;2023-04-02T07:30:22;91076.34;;;13.58;51.65
20628;BME280;10473;42.734;24.258;2023-04-02T07:32:51;91089.78;;;13.74;52.64
20628;BME280;10473;42.734;24.258;2023-04-02T07:35:19;91089.66;;;13.81;51.54
20628;BME280;10473;42.734;24.258;2023-04-02T07:37:46;91088.25;;;13.99;52.79
20628;BME280;10473;42.734;24.258;2023-04-02T07:40:16;91084.72;;;13.56;55.14
20628;BME280;10473;42.734;24.258;2023-04-02T07:46:30;91092.28;;;14.53;50.59
20628;BME280;10473;42.734;24.258;2023-04-02T07:49:07;91086.44;;;14.39;50.75
20628;BME280;10473;42.734;24.258;2023-04-02T07:51:35;91089.88;;;14.39;50.12
20628;BME280;10473;42.734;24.258;2023-04-02T07:54:03;91086.44;;;14.39;50.41
20628;BME280;10473;42.734;24.258;2023-04-02T07:56:35;91087.13;;;14.43;51.19
20628;BME280;10473;42.734;24.258;2023-04-02T07:59:04;91083.06;;;14.35;50.41
20628;BME280;10473;42.734;24.258;2023-04-02T08:01:32;91088.31;;;14.42;50.03
20628;BME280;10473;42.734;24.258;2023-04-02T08:04:01;91085.16;;;14.47;51.33
20628;BME280;10473;42.734;24.258;2023-04-02T08:06:31;91093.03;;;14.54;50.43
20628;BME280;10473;42.734;24.258;2023-04-02T08:08:59;91085.72;;;14.58;49.23
20628;BME280;10473;42.734;24.258;2023-04-02T08:11:27;91091.38;;;14.60;49.19
20628;BME280;10473;42.734;24.258;2023-04-02T08:13:54;91091.84;;;14.55;49.75
20628;BME280;10473;42.734;24.258;2023-04-02T08:16:22;91088.84;;;14.53;49.77
20628;BME280;10473;42.734;24.258;2023-04-02T08:18:50;91094.41;;;14.62;52.22
20628;BME280;10473;42.734;24.258;2023-04-02T08:21:18;91095.19;;;14.39;47.60
20628;BME280;10473;42.734;24.258;2023-04-02T08:23:47;91091.66;;;14.46;47.30
20628;BME280;10473;42.734;24.258;2023-04-02T08:26:16;91092.59;;;14.36;47.46
20628;BME280;10473;42.734;24.258;2023-04-02T08:28:44;91096.00;;;14.13;47.65
20628;BME280;10473;42.734;24.258;2023-04-02T08:31:12;91089.81;;;13.97;47.71
20628;BME280;10473;42.734;24.258;2023-04-02T08:33:40;91099.63;;;14.00;48.35
20628;BME280;10473;42.734;24.258;2023-04-02T08:36:13;91092.38;;;13.51;48.65
20628;BME280;10473;42.734;24.258;2023-04-02T08:38:42;91109.97;;;13.71;47.80
20628;BME280;10473;42.734;24.258;2023-04-02T08:41:18;91109.50;;;13.76;48.78
20628;BME280;10473;42.734;24.258;2023-04-02T08:43:59;91111.53;;;13.69;48.59
20628;BME280;10473;42.734;24.258;2023-04-02T08:46:32;91109.25;;;13.94;50.00
20628;BME280;10473;42.734;24.258;2023-04-02T08:49:10;91107.28;;;14.44;49.97
20628;BME280;10473;42.734;24.258;2023-04-02T08:51:39;91115.22;;;14.47;49.28
20628;BME280;10473;42.734;24.258;2023-04-02T08:54:14;91103.69;;;14.54;47.44
20628;BME280;10473;42.734;24.258;2023-04-02T08:56:50;91110.28;;;15.08;50.75
20628;BME280;10473;42.734;24.258;2023-04-02T08:59:24;91112.06;;;15.34;47.33
20628;BME280;10473;42.734;24.258;2023-04-02T09:02:04;91113.09;;;15.01;45.74
20628;BME280;10473;42.734;24.258;2023-04-02T09:04:40;91122.88;;;15.27;44.83
20628;BME280;10473;42.734;24.258;2023-04-02T09:07:10;91109.41;;;15.34;44.58
20628;BME280;10473;42.734;24.258;2023-04-02T09:09:39;91109.19;;;15.25;45.55
20628;BME280;10473;42.734;24.258;2023-04-02T09:12:15;91119.72;;;15.32;44.68
20628;BME280;10473;42.734;24.258;2023-04-02T09:14:53;91114.94;;;15.43;44.27
20628;BME280;10473;42.734;24.258;2023-04-02T09:17:25;91123.84;;;15.36;43.73
20628;BME280;10473;42.734;24.258;2023-04-02T09:19:56;91120.88;;;15.31;43.10
20628;BME280;10473;42.734;24.258;2023-04-02T09:22:26;91110.69;;;15.45;46.40
20628;BME280;10473;42.734;24.258;2023-04-02T09:24:55;91116.63;;;15.53;46.22
20628;BME280;10473;42.734;24.258;2023-04-02T09:27:26;91117.06;;;15.51;45.53
20628;BME280;10473;42.734;24.258;2023-04-02T09:29:57;91113.91;;;15.17;44.63
20628;BME280;10473;42.734;24.258;2023-04-02T09:32:44;91110.53;;;15.33;45.22
20628;BME280;10473;42.734;24.258;2023-04-02T09:35:16;91104.41;;;15.36;45.52
20628;BME280;10473;42.734;24.258;2023-04-02T09:37:45;91103.94;;;15.02;43.71
20628;BME280;10473;42.734;24.258;2023-04-02T09:40:21;91101.84;;;15.29;45.92
20628;BME280;10473;42.734;24.258;2023-04-02T09:43:01;91111.03;;;15.28;46.03
20628;BME280;10473;42.734;24.258;2023-04-02T09:45:29;91094.00;;;15.41;46.03
20628;BME280;10473;42.734;24.258;2023-04-02T09:47:57;91099.47;;;15.54;44.91
20628;BME280;10473;42.734;24.258;2023-04-02T09:50:27;91106.69;;;15.53;44.85
20628;BME280;10473;42.734;24.258;2023-04-02T09:53:17;91098.31;;;15.35;45.94
20628;BME280;10473;42.734;24.258;2023-04-02T09:56:07;91096.09;;;15.50;43.99
20628;BME280;10473;42.734;24.258;2023-04-02T09:58:36;91098.53;;;15.60;44.03
20628;BME280;10473;42.734;24.258;2023-04-02T10:01:04;91097.19;;;15.52;45.02
20628;BME280;10473;42.734;24.258;2023-04-02T10:03:36;91098.47;;;15.64;43.95
20628;BME280;10473;42.734;24.258;2023-04-02T10:06:06;91096.63;;;15.77;44.26
20628;BME280;10473;42.734;24.258;2023-04-02T10:08:35;91106.50;;;15.80;43.31
20628;BME280;10473;42.734;24.258;2023-04-02T10:11:06;91096.66;;;15.93;43.77
20628;BME280;10473;42.734;24.258;2023-04-02T10:13:42;91091.81;;;16.04;43.14
20628;BME280;10473;42.734;24.258;2023-04-02T10:16:16;91105.28;;;16.00;44.71
20628;BME280;10473;42.734;24.258;2023-04-02T10:18:49;91088.31;;;16.07;41.47
20628;BME280;10473;42.734;24.258;2023-04-02T10:21:22;91093.50;;;16.14;41.41
20628;BME280;10473;42.734;24.258;2023-04-02T10:23:52;91088.59;;;15.61;40.99
20628;BME280;10473;42.734;24.258;2023-04-02T10:29:26;91091.25;;;15.96;42.73
20628;BME280;10473;42.734;24.258;2023-04-02T10:32:03;91104.47;;;15.68;42.81
20628;BME280;10473;42.734;24.258;2023-04-02T10:34:40;91091.28;;;15.77;42.99
20628;BME280;10473;42.734;24.258;2023-04-02T10:37:43;91098.00;;;15.85;43.77
20628;BME280;10473;42.734;24.258;2023-04-02T10:40:20;91104.09;;;16.01;42.22
20628;BME280;10473;42.734;24.258;2023-04-02T10:42:58;91098.81;;;16.30;42.30
20628;BME280;10473;42.734;24.258;2023-04-02T10:45:37;91081.69;;;16.27;42.64
20628;BME280;10473;42.734;24.258;2023-04-02T10:48:15;91090.16;;;16.10;42.78
20628;BME280;10473;42.734;24.258;2023-04-02T10:50:49;91096.66;;;16.25;41.58
20628;BME280;10473;42.734;24.258;2023-04-02T10:53:23;91097.50;;;16.38;43.31
20628;BME280;10473;42.734;24.258;2023-04-02T10:55:56;91081.75;;;16.56;41.52
20628;BME280;10473;42.734;24.258;2023-04-02T10:58:29;91080.00;;;16.65;42.10
20628;BME280;10473;42.734;24.258;2023-04-02T11:01:01;91084.44;;;16.56;41.14
20628;BME280;10473;42.734;24.258;2023-04-02T11:03:34;91080.88;;;16.75;41.47
20628;BME280;10473;42.734;24.258;2023-04-02T11:06:09;91085.63;;;16.55;39.32
20628;BME280;10473;42.734;24.258;2023-04-02T11:08:42;91087.78;;;16.60;36.18
20628;BME280;10473;42.734;24.258;2023-04-02T11:11:13;91082.72;;;16.78;37.41
20628;BME280;10473;42.734;24.258;2023-04-02T11:13:49;91087.22;;;16.81;36.40
20628;BME280;10473;42.734;24.258;2023-04-02T11:16:20;91085.19;;;16.85;34.67
20628;BME280;10473;42.734;24.258;2023-04-02T11:19:07;91090.13;;;16.86;36.09
20628;BME280;10473;42.734;24.258;2023-04-02T11:21:37;91088.09;;;16.78;35.89
20628;BME280;10473;42.734;24.258;2023-04-02T11:24:16;91081.44;;;16.54;36.35
20628;BME280;10473;42.734;24.258;2023-04-02T11:26:49;91077.31;;;16.65;36.99
20628;BME280;10473;42.734;24.258;2023-04-02T11:29:28;91078.06;;;16.66;36.85
20628;BME280;10473;42.734;24.258;2023-04-02T11:32:31;91072.03;;;16.78;37.38
20628;BME280;10473;42.734;24.258;2023-04-02T11:35:24;91071.16;;;16.81;36.30
20628;BME280;10473;42.734;24.258;2023-04-02T11:37:55;91068.34;;;17.00;37.79
20628;BME280;10473;42.734;24.258;2023-04-02T11:40:46;91079.34;;;16.90;35.92
20628;BME280;10473;42.734;24.258;2023-04-02T11:43:47;91068.84;;;16.83;35.92
20628;BME280;10473;42.734;24.258;2023-04-02T11:46:44;91061.41;;;17.03;37.62
20628;BME280;10473;42.734;24.258;2023-04-02T11:49:39;91063.72;;;17.01;37.87
20628;BME280;10473;42.734;24.258;2023-04-02T11:52:28;91050.03;;;16.99;37.65
20628;BME280;10473;42.734;24.258;2023-04-02T11:55:00;91052.41;;;16.97;36.67
20628;BME280;10473;42.734;24.258;2023-04-02T12:00:28;91051.47;;;16.75;35.70
20628;BME280;10473;42.734;24.258;2023-04-02T12:03:14;91050.53;;;16.53;34.26
20628;BME280;10473;42.734;24.258;2023-04-02T12:05:50;91047.03;;;16.40;35.38
20628;BME280;10473;42.734;24.258;2023-04-02T12:08:32;91058.72;;;16.30;35.46
20628;BME280;10473;42.734;24.258;2023-04-02T12:11:05;91041.72;;;16.08;36.20
20628;BME280;10473;42.734;24.258;2023-04-02T12:13:53;91047.72;;;16.12;36.70
20628;BME280;10473;42.734;24.258;2023-04-02T12:16:24;91051.06;;;16.16;37.84
20628;BME280;10473;42.734;24.258;2023-04-02T12:18:56;91045.63;;;16.19;37.53
20628;BME280;10473;42.734;24.258;2023-04-02T12:21:29;91055.88;;;16.21;37.66
20628;BME280;10473;42.734;24.258;2023-04-02T12:23:57;91050.88;;;16.23;36.67
20628;BME280;10473;42.734;24.258;2023-04-02T12:26:29;91051.97;;;16.09;36.53
20628;BME280;10473;42.734;24.258;2023-04-02T12:29:24;91055.06;;;15.92;37.23
20628;BME280;10473;42.734;24.258;2023-04-02T12:31:53;91059.00;;;15.87;37.56
20628;BME280;10473;42.734;24.258;2023-04-02T12:34:23;91061.25;;;15.89;34.69
20628;BME280;10473;42.734;24.258;2023-04-02T12:36:55;91052.31;;;15.95;35.38
20628;BME280;10473;42.734;24.258;2023-04-02T12:39:25;91052.47;;;16.04;35.74
20628;BME280;10473;42.734;24.258;2023-04-02T12:41:52;91052.38;;;16.24;37.25
20628;BME280;10473;42.734;24.258;2023-04-02T12:44:22;91045.69;;;16.32;37.26
20628;BME280;10473;42.734;24.258;2023-04-02T12:46:50;91040.16;;;16.39;36.83
20628;BME280;10473;42.734;24.258;2023-04-02T12:49:32;91038.44;;;16.61;37.56
20628;BME280;10473;42.734;24.258;2023-04-02T12:52:05;91032.69;;;16.62;34.58
20628;BME280;10473;42.734;24.258;2023-04-02T12:54:36;91032.28;;;16.64;35.34
20628;BME280;10473;42.734;24.258;2023-04-02T12:57:32;91030.34;;;16.64;34.89
20628;BME280;10473;42.734;24.258;2023-04-02T13:00:25;91037.72;;;16.60;35.76
20628;BME280;10473;42.734;24.258;2023-04-02T13:02:58;91041.19;;;16.45;33.27
20628;BME280;10473;42.734;24.258;2023-04-02T13:05:34;91033.16;;;16.45;34.47
20628;BME280;10473;42.734;24.258;2023-04-02T13:08:15;91032.50;;;16.41;34.71
20628;BME280;10473;42.734;24.258;2023-04-02T13:10:52;91031.47;;;16.51;34.75
20628;BME280;10473;42.734;24.258;2023-04-02T13:13:25;91034.28;;;16.60;34.11
20628;BME280;10473;42.734;24.258;2023-04-02T13:16:02;91024.25;;;16.64;33.83
20628;BME280;10473;42.734;24.258;2023-04-02T13:18:31;91020.81;;;16.63;33.88
20628;BME280;10473;42.734;24.258;2023-04-02T13:21:00;91014.38;;;16.61;33.41
20628;BME280;10473;42.734;24.258;2023-04-02T13:23:35;91016.88;;;16.39;32.91
20628;BME280;10473;42.734;24.258;2023-04-02T13:26:12;91016.63;;;16.62;34.81
20628;BME280;10473;42.734;24.258;2023-04-02T13:28:42;91022.28;;;16.80;34.21
20628;BME280;10473;42.734;24.258;2023-04-02T13:31:14;91025.91;;;16.86;35.25
20628;BME280;10473;42.734;24.258;2023-04-02T13:33:42;91027.97;;;16.95;34.16
20628;BME280;10473;42.734;24.258;2023-04-02T13:36:12;91026.69;;;16.87;35.03
20628;BME280;10473;42.734;24.258;2023-04-02T13:38:41;91007.88;;;17.03;35.55
20628;BME280;10473;42.734;24.258;2023-04-02T13:41:17;90991.69;;;16.94;35.07
20628;BME280;10473;42.734;24.258;2023-04-02T13:43:46;91006.31;;;16.77;35.30